Quill Lake, Canada
Current Conditions -  °F | °C
As of 8:10 AM on Thursday 23 Oct 2014 (Local Time) from CYBU Reporting Station
Overcast Overcast  
Wind Chill: 46°   Ceiling: 1300
Heat Index: 46°   Visibility: 9mi
Dew Point: 45°   Wind: 3mph
Humidity: 93%   Direction: 80°E
Pressure: 29.72"   Gusts: NA
Location:  52.07°N, 104.25°W
Report Text: CYBU 231410Z AUTO 08003KT 080V170 9SM OVC013 08/07 A2972 RMK SLP076
Loading
Personal Weather Stations






























Interactive Weather Map
Tropical Storm Tracking
New forecast layout! Learn more

10-Day Weather Forecast

Advertisements
Track Severe Weather on mobile